^^
Grace C. Lehan Memorial Weather Station Historical Data
Daily Summary for April 10, 2021 Units:  English    Metric   Both
Daily Weekly Monthly Yearly
  High: Low: Average:
Temperature: 65 °F 54.7 °F 60.2 °F
Dew Point: 59.8 °F 52.5 °F 56.3 °F
Humidity: 93% 81% 87%
Wind Speed: 3.5mph 0mph 0.5mph
Wind Gust: 13mph - -
Wind- - ESE
Pressure: 30.26 in 30.12 in -
Precipitation: 0.00 in    
 
 
Tabular Data for April 10, 2021
Time Temperature Dew Point Pressure Wind Wind Speed Wind Gust Humidity Rainfall Rate (Hourly) solar
00:09 59.2 °F 53.7 °F 30.26 in ENE 0.1 mph 2 mph 82% 0.00 in 0 W/m2
00:14 59.1 °F 53.7 °F 30.26 in Calm   2 mph 82.2% 0.00 in 0 W/m2
00:19 59.1 °F 54 °F 30.26 in ENE 0.3 mph 3 mph 83% 0.00 in 0 W/m2
00:24 59 °F 53.9 °F 30.26 in ENE 0.4 mph 3 mph 83% 0.00 in 0 W/m2
00:29 59 °F 53.8 °F 30.26 in ENE 0.2 mph 3 mph 83% 0.00 in 0 W/m2
00:34 58.9 °F 53.8 °F 30.26 in ENE 0.2 mph 3 mph 83% 0.00 in 0 W/m2
00:39 58.9 °F 53.8 °F 30.26 in ENE 0.7 mph 5 mph 83.2% 0.00 in 0 W/m2
00:44 58.9 °F 53.9 °F 30.26 in ENE 0.5 mph 5 mph 83.5% 0.00 in 0 W/m2
00:49 58.8 °F 54 °F 30.26 in ENE 0.2 mph 5 mph 84% 0.00 in 0 W/m2
00:54 58.7 °F 53.9 °F 30.25 in ENE 1.2 mph 6 mph 84% 0.00 in 0 W/m2
00:59 58.7 °F 53.9 °F 30.25 in NE 0.3 mph 6 mph 84% 0.00 in 0 W/m2
01:04 58.6 °F 53.8 °F 30.25 in NE 0.1 mph 6 mph 84% 0.00 in 0 W/m2
01:09 58.6 °F 53.9 °F 30.25 in Calm   2 mph 84.5% 0.00 in 0 W/m2
01:14 58.5 °F 54 °F 30.25 in Calm   2 mph 85% 0.00 in 0 W/m2
01:19 58.5 °F 54 °F 30.25 in Calm   2 mph 85% 0.00 in 0 W/m2
01:24 58.4 °F 53.9 °F 30.25 in ENE 0.2 mph 3 mph 85% 0.00 in 0 W/m2
01:29 58.3 °F 53.9 °F 30.25 in ENE 0.2 mph 4 mph 85% 0.00 in 0 W/m2
01:34 58.3 °F 54 °F 30.25 in NE 0.4 mph 6 mph 85.6% 0.00 in 0 W/m2
01:39 58.2 °F 54.1 °F 30.25 in NE 0.3 mph 6 mph 86% 0.00 in 0 W/m2
01:44 58.2 °F 54 °F 30.26 in NE 0.3 mph 6 mph 86% 0.00 in 0 W/m2
01:49 58.2 °F 54 °F 30.26 in ENE 0.2 mph 6 mph 86% 0.00 in 0 W/m2
01:54 58.1 °F 53.9 °F 30.26 in ENE 0.6 mph 6 mph 86% 0.00 in 0 W/m2
01:59 58.1 °F 53.9 °F 30.26 in NE 0.3 mph 6 mph 86% 0.00 in 0 W/m2
02:04 58.1 °F 53.9 °F 30.26 in ENE 0.4 mph 6 mph 86% 0.00 in 0 W/m2
02:09 58.1 °F 53.9 °F 30.26 in NE 1 mph 6 mph 86% 0.00 in 0 W/m2
02:14 58 °F 53.9 °F 30.25 in NE 0.2 mph 6 mph 86% 0.00 in 0 W/m2
02:19 58 °F 53.8 °F 30.25 in NE 1.2 mph 6 mph 86% 0.00 in 0 W/m2
02:24 58 °F 54 °F 30.25 in NE 0.5 mph 6 mph 86.4% 0.00 in 0 W/m2
02:29 58 °F 54.2 °F 30.25 in NE 1 mph 6 mph 87% 0.00 in 0 W/m2
02:34 57.9 °F 54.1 °F 30.25 in NE 0.4 mph 6 mph 87% 0.00 in 0 W/m2
02:39 57.9 °F 54.1 °F 30.25 in Calm   5 mph 87% 0.00 in 0 W/m2
02:44 57.8 °F 54 °F 30.25 in ENE 1.9 mph 7 mph 87% 0.00 in 0 W/m2
02:49 57.8 °F 54 °F 30.25 in ENE 1.3 mph 7 mph 87% 0.00 in 0 W/m2
02:54 57.8 °F 54 °F 30.25 in NE 1.5 mph 7 mph 87% 0.00 in 0 W/m2
02:59 57.7 °F 53.9 °F 30.25 in NE 0.2 mph 7 mph 87% 0.00 in 0 W/m2
03:04 57.7 °F 54 °F 30.25 in Calm   7 mph 87.5% 0.00 in 0 W/m2
03:09 57.7 °F 54.1 °F 30.25 in NE 0.3 mph 5 mph 87.8% 0.00 in 0 W/m2
03:14 57.6 °F 53.8 °F 30.25 in NE 0.3 mph 5 mph 87% 0.00 in 0 W/m2
03:19 57.6 °F 54 °F 30.25 in Calm   5 mph 87.8% 0.00 in 0 W/m2
03:24 57.5 °F 54 °F 30.24 in Calm   5 mph 88% 0.00 in 0 W/m2
03:29 57.5 °F 54 °F 30.24 in Calm   5 mph 88% 0.00 in 0 W/m2
03:34 57.4 °F 53.9 °F 30.24 in Calm   5 mph 88% 0.00 in 0 W/m2
03:39 57.4 °F 53.8 °F 30.24 in Calm   2 mph 88% 0.00 in 0 W/m2
03:44 57.3 °F 53.9 °F 30.24 in NE 0.1 mph 2 mph 88.3% 0.00 in 0 W/m2
03:49 57.3 °F 53.9 °F 30.24 in NE 0.2 mph 3 mph 88.4% 0.00 in 0 W/m2
03:54 57.2 °F 53.9 °F 30.24 in Calm   3 mph 88.7% 0.00 in 0 W/m2
03:59 57.2 °F 54 °F 30.24 in Calm   3 mph 89% 0.00 in 0 W/m2
04:09 57.1 °F 53.9 °F 30.25 in Calm     89% 0.00 in 0 W/m2
04:14 57.1 °F 53.9 °F 30.25 in Calm     89% 0.00 in 0 W/m2
04:19 57.1 °F 53.9 °F 30.25 in Calm   2 mph 89% 0.00 in 0 W/m2
04:24 57 °F 53.8 °F 30.24 in Calm   2 mph 89% 0.00 in 0 W/m2
04:29 57 °F 53.8 °F 30.24 in NE 0.2 mph 3 mph 89% 0.00 in 0 W/m2
04:34 56.9 °F 53.7 °F 30.24 in Calm   3 mph 89% 0.00 in 0 W/m2
04:39 56.8 °F 53.6 °F 30.25 in NNE 0.2 mph 4 mph 89% 0.00 in 0 W/m2
04:44 56.7 °F 53.5 °F 30.25 in Calm   4 mph 89% 0.00 in 0 W/m2
04:49 56.6 °F 53.4 °F 30.24 in Calm   4 mph 89% 0.00 in 0 W/m2
04:54 56.5 °F 53.4 °F 30.24 in Calm   4 mph 89.5% 0.00 in 0 W/m2
04:59 56.4 °F 53.5 °F 30.24 in Calm   4 mph 90% 0.00 in 0 W/m2
05:04 56.2 °F 53.3 °F 30.24 in Calm   4 mph 90% 0.00 in 0 W/m2
05:09 56.1 °F 53.2 °F 30.24 in Calm     90% 0.00 in 0 W/m2
05:14 56 °F 53.1 °F 30.24 in NNE 0.2 mph 5 mph 90% 0.00 in 0 W/m2
05:19 55.9 °F 53 °F 30.24 in Calm   5 mph 90% 0.00 in 0 W/m2
05:24 55.8 °F 52.9 °F 30.24 in NNE 0.1 mph 5 mph 90% 0.00 in 0 W/m2
05:29 55.7 °F 52.9 °F 30.24 in NNW 0.2 mph 5 mph 90.2% 0.00 in 0 W/m2
05:34 55.6 °F 52.9 °F 30.24 in Calm   5 mph 90.5% 0.00 in 0 W/m2
05:39 55.5 °F 52.9 °F 30.23 in NW 0.2 mph 3 mph 91% 0.00 in 0 W/m2
05:44 55.4 °F 52.8 °F 30.23 in Calm   3 mph 91% 0.00 in 0 W/m2
05:49 55.3 °F 52.7 °F 30.23 in Calm   3 mph 91% 0.00 in 0 W/m2
05:54 55.2 °F 52.7 °F 30.23 in Calm   3 mph 91% 0.00 in 0 W/m2
05:59 55.1 °F 52.6 °F 30.23 in NW 0.2 mph 3 mph 91% 0.00 in 0 W/m2
06:04 55.1 °F 52.5 °F 30.23 in NW 0.2 mph 4 mph 91% 0.00 in 0 W/m2
06:09 55 °F 52.5 °F 30.23 in Calm   4 mph 91.3% 0.00 in 0 W/m2
06:14 54.9 °F 52.7 °F 30.23 in North 0.1 mph 4 mph 92% 0.00 in 0 W/m2
06:19 54.9 °F 52.6 °F 30.23 in North 0.1 mph 4 mph 92% 0.00 in 0 W/m2
06:24 54.8 °F 52.5 °F 30.23 in Calm   4 mph 92% 0.00 in 0 W/m2
06:29 54.8 °F 52.5 °F 30.23 in North 0.1 mph 4 mph 92% 0.00 in 0 W/m2
06:34 54.8 °F 52.5 °F 30.23 in Calm   4 mph 92% 0.00 in 0 W/m2
06:39 54.8 °F 52.5 °F 30.23 in NW 0.6 mph 6 mph 92% 0.00 in 0 W/m2
06:44 54.8 °F 52.5 °F 30.23 in Calm   6 mph 92% 0.00 in 0 W/m2
06:49 54.7 °F 52.5 °F 30.23 in North 0.8 mph 7 mph 92% 0.00 in 0 W/m2
06:54 54.7 °F 52.5 °F 30.23 in NNE 0.2 mph 7 mph 92% 0.00 in 0 W/m2
06:59 54.7 °F 52.5 °F 30.23 in NNE 0.5 mph 7 mph 92.2% 0.00 in 0 W/m2
07:04 54.7 °F 52.7 °F 30.23 in NNE 0.2 mph 7 mph 93% 0.00 in 0 W/m2
07:09 54.7 °F 52.7 °F 30.23 in Calm   4 mph 93% 0.00 in 0 W/m2
07:14 54.8 °F 52.8 °F 30.24 in NNE 0.1 mph 4 mph 93% 0.00 in 5 W/m2
07:19 54.8 °F 52.8 °F 30.24 in Calm   4 mph 93% 0.00 in 7 W/m2
07:24 54.9 °F 52.9 °F 30.24 in NNE 0.4 mph 4 mph 93% 0.00 in 9 W/m2
07:29 55 °F 53 °F 30.24 in NNW 0.1 mph 4 mph 93% 0.00 in 11 W/m2
07:34 55 °F 53 °F 30.24 in NNW 0.2 mph 4 mph 93% 0.00 in 12 W/m2
07:39 55.1 °F 53.1 °F 30.24 in NNW 0.5 mph 4 mph 93% 0.00 in 14 W/m2
07:44 55.1 °F 53.2 °F 30.24 in NNW 0.3 mph 5 mph 93% 0.00 in 14 W/m2
07:49 55.3 °F 53.3 °F 30.24 in NNE 0.1 mph 5 mph 93% 0.00 in 18 W/m2
07:54 55.3 °F 53.3 °F 30.24 in NE 0.1 mph 5 mph 93% 0.00 in 19 W/m2
07:59 55.4 °F 53.4 °F 30.24 in NE 0.4 mph 5 mph 93% 0.00 in 19 W/m2
08:00 55.5 °F 53.5 °F 30.24 in Calm   5 mph 93% 0.00 in 19 W/m2
08:09 55.7 °F 53.7 °F 30.24 in Calm   2 mph 93% 0.00 in 35 W/m2
08:14 55.8 °F 53.8 °F 30.24 in NNW 0.7 mph 6 mph 93% 0.00 in 35 W/m2
08:19 55.9 °F 53.9 °F 30.24 in NNW 0.3 mph 9 mph 93% 0.00 in 37 W/m2
08:24 56 °F 54 °F 30.24 in NW 0.5 mph 9 mph 93% 0.00 in 42 W/m2
08:29 56.1 °F 54 °F 30.24 in Calm   9 mph 92.6% 0.00 in 44 W/m2
08:34 56.3 °F 54 °F 30.24 in Calm   9 mph 92.1% 0.00 in 47 W/m2
08:39 56.5 °F 54.4 °F 30.24 in NW 0.1 mph 3 mph 92.6% 0.00 in 46 W/m2
08:44 56.6 °F 54.3 °F 30.25 in Calm   3 mph 92% 0.00 in 42 W/m2
08:49 56.7 °F 54.4 °F 30.25 in Calm   3 mph 92% 0.00 in 42 W/m2
08:54 56.8 °F 54.5 °F 30.25 in NNW 0.5 mph 6 mph 92% 0.00 in 44 W/m2
08:59 56.9 °F 54.6 °F 30.25 in Calm   6 mph 92% 0.00 in 46 W/m2
09:04 57.2 °F 54.9 °F 30.25 in Calm   6 mph 92% 0.00 in 47 W/m2
09:09 57.3 °F 54.9 °F 30.25 in NNW 0.6 mph 5 mph 91.7% 0.00 in 54 W/m2
09:14 57.4 °F 55 °F 30.25 in North 0.2 mph 5 mph 91.7% 0.00 in 58 W/m2
09:19 57.5 °F 54.9 °F 30.25 in North 0.3 mph 5 mph 91% 0.00 in 67 W/m2
09:24 57.7 °F 55.1 °F 30.25 in North 0.5 mph 6 mph 91% 0.00 in 70 W/m2
09:29 57.8 °F 55.2 °F 30.25 in NNW 0.2 mph 6 mph 91% 0.00 in 67 W/m2
09:34 58 °F 55.4 °F 30.25 in NNW 0.2 mph 6 mph 91% 0.00 in 77 W/m2
09:39 58.2 °F 55.4 °F 30.24 in NNW 0.7 mph 6 mph 90.4% 0.00 in 84 W/m2
09:44 58.3 °F 55.6 °F 30.24 in NNE 0.4 mph 6 mph 90.8% 0.00 in 88 W/m2
09:49 58.4 °F 55.5 °F 30.25 in NE 0.2 mph 6 mph 90.2% 0.00 in 86 W/m2
09:54 58.5 °F 55.4 °F 30.25 in NE 0.1 mph 6 mph 89.4% 0.00 in 83 W/m2
09:59 58.7 °F 55.4 °F 30.25 in North 0.2 mph 6 mph 89% 0.00 in 81 W/m2
10:04 58.9 °F 55.8 °F 30.25 in NNW 0.2 mph 6 mph 89.3% 0.00 in 93 W/m2
10:09 59.1 °F 55.8 °F 30.24 in NNW 0.2 mph 6 mph 89% 0.00 in 113 W/m2
10:14 59.2 °F 56 °F 30.24 in NNW 0.9 mph 6 mph 89% 0.00 in 113 W/m2
10:19 59.3 °F 55.8 °F 30.24 in NNE 0.5 mph 6 mph 88.1% 0.00 in 102 W/m2
10:24 59.5 °F 56 °F 30.24 in East 0.3 mph 6 mph 88.2% 0.00 in 111 W/m2
10:29 59.7 °F 56.1 °F 30.24 in Calm   6 mph 88% 0.00 in 109 W/m2
10:34 59.8 °F 56.2 °F 30.24 in ENE 0.6 mph 6 mph 88% 0.00 in 109 W/m2
10:39 59.9 °F 56.1 °F 30.24 in ENE 2.8 mph 7 mph 87.3% 0.00 in 107 W/m2
10:44 60 °F 56.1 °F 30.24 in ENE 0.3 mph 7 mph 87% 0.00 in 79 W/m2
10:49 60 °F 56.1 °F 30.24 in ENE 0.4 mph 7 mph 87% 0.00 in 81 W/m2
10:54 60 °F 56.1 °F 30.24 in NE 0.5 mph 7 mph 87% 0.00 in 72 W/m2
10:59 60.1 °F 56.2 °F 30.23 in NNE 0.2 mph 7 mph 87.1% 0.00 in 79 W/m2
11:04 60.1 °F 56.4 °F 30.23 in NE 0.5 mph 7 mph 87.7% 0.00 in 79 W/m2
11:09 60.2 °F 56.6 °F 30.23 in ENE 0.2 mph 5 mph 87.8% 0.00 in 74 W/m2
11:14 60.3 °F 56.6 °F 30.23 in Calm   5 mph 87.7% 0.00 in 67 W/m2
11:19 60.4 °F 56.9 °F 30.23 in Calm   5 mph 88% 0.00 in 88 W/m2
11:24 60.6 °F 57 °F 30.23 in Calm   5 mph 88% 0.00 in 105 W/m2
11:29 60.7 °F 57.2 °F 30.23 in ENE 0.6 mph 5 mph 88% 0.00 in 125 W/m2
11:34 60.9 °F 57 °F 30.22 in ENE 0.4 mph 5 mph 87.1% 0.00 in 125 W/m2
11:39 61 °F 57.1 °F 30.22 in ENE 0.2 mph 4 mph 87% 0.00 in 114 W/m2
11:44 61.1 °F 57.2 °F 30.22 in Calm   4 mph 87% 0.00 in 130 W/m2
11:49 61.4 °F 57.6 °F 30.21 in NE 0.7 mph 4 mph 87.3% 0.00 in 127 W/m2
11:54 61.6 °F 57.7 °F 30.21 in North 0.6 mph 7 mph 87% 0.00 in 116 W/m2
11:59 61.7 °F 57.6 °F 30.20 in North 0.2 mph 7 mph 86.4% 0.00 in 95 W/m2
12:00 61.8 °F 57.6 °F 30.20 in Calm   7 mph 86% 0.00 in 69 W/m2
12:09 61.8 °F 57.7 °F 30.21 in Calm     86.4% 0.00 in 79 W/m2
12:14 62 °F 58 °F 30.21 in Calm     86.8% 0.00 in 91 W/m2
12:19 62.1 °F 58 °F 30.21 in ENE 0.3 mph 4 mph 86.5% 0.00 in 91 W/m2
12:24 62.1 °F 57.9 °F 30.21 in ENE 0.5 mph 4 mph 86% 0.00 in 113 W/m2
12:29 62.2 °F 58.2 °F 30.21 in ENE 0.3 mph 4 mph 86.6% 0.00 in 114 W/m2
12:34 62.4 °F 58.3 °F 30.21 in ENE 0.2 mph 4 mph 86.4% 0.00 in 97 W/m2
12:39 62.6 °F 58.3 °F 30.21 in ENE 0.7 mph 5 mph 86.1% 0.00 in 97 W/m2
12:44 62.6 °F 58.4 °F 30.20 in ENE 1.7 mph 6 mph 86% 0.00 in 134 W/m2
12:49 62.8 °F 58.5 °F 30.20 in East 0.2 mph 6 mph 86% 0.00 in 144 W/m2
12:54 63 °F 58.8 °F 30.20 in East 0.1 mph 6 mph 86.2% 0.00 in 128 W/m2
12:59 63.2 °F 59 °F 30.21 in ENE 0.1 mph 6 mph 86.1% 0.00 in 104 W/m2
13:04 63.4 °F 59.2 °F 30.21 in ENE 0.1 mph 6 mph 86.1% 0.00 in 111 W/m2
13:09 63.6 °F 59.2 °F 30.20 in NE 0.8 mph 7 mph 85.7% 0.00 in 114 W/m2
13:14 63.6 °F 59 °F 30.20 in ENE 0.2 mph 7 mph 85% 0.00 in 109 W/m2
13:19 63.6 °F 59.1 °F 30.20 in ENE 0.5 mph 7 mph 85% 0.00 in 97 W/m2
13:24 63.7 °F 59.1 °F 30.20 in Calm   7 mph 85% 0.00 in 83 W/m2
13:29 63.7 °F 59.1 °F 30.20 in Calm   7 mph 85% 0.00 in 81 W/m2
13:34 63.8 °F 59.2 °F 30.20 in NE 0.3 mph 7 mph 85% 0.00 in 91 W/m2
13:39 63.8 °F 59.3 °F 30.20 in NE 0.3 mph 4 mph 85.4% 0.00 in 95 W/m2
13:44 63.9 °F 59.3 °F 30.20 in NE 0.4 mph 5 mph 85% 0.00 in 84 W/m2
13:49 64 °F 59.5 °F 30.19 in ENE 0.2 mph 5 mph 85.2% 0.00 in 79 W/m2
13:54 64.1 °F 59.5 °F 30.19 in East 0.2 mph 5 mph 85% 0.00 in 83 W/m2
13:59 64.1 °F 59.5 °F 30.19 in East 0.2 mph 5 mph 85% 0.00 in 70 W/m2
14:04 64.2 °F 59.6 °F 30.19 in East 0.1 mph 5 mph 85% 0.00 in 67 W/m2
14:09 64.3 °F 59.7 °F 30.19 in Calm   2 mph 85% 0.00 in 63 W/m2
14:14 64.4 °F 59.8 °F 30.19 in East 0.2 mph 3 mph 85% 0.00 in 53 W/m2
14:19 64.3 °F 59.5 °F 30.18 in Calm   3 mph 84.4% 0.00 in 53 W/m2
14:24 64.3 °F 59.6 °F 30.19 in East 0.7 mph 4 mph 84.8% 0.00 in 44 W/m2
14:29 64.2 °F 59.6 °F 30.19 in Calm   4 mph 85% 0.00 in 42 W/m2
14:34 64.2 °F 59.6 °F 30.18 in Calm   4 mph 85% 0.00 in 47 W/m2
14:39 64.2 °F 59.7 °F 30.18 in ENE 0.2 mph 4 mph 85.2% 0.00 in 46 W/m2
14:44 64.2 °F 59.6 °F 30.18 in ENE 0.6 mph 5 mph 85% 0.00 in 58 W/m2
14:49 64.3 °F 59.6 °F 30.18 in East 0.7 mph 5 mph 84.9% 0.00 in 65 W/m2
14:54 64.3 °F 59.4 °F 30.18 in ENE 1.6 mph 10 mph 84% 0.00 in 70 W/m2
14:59 64.4 °F 59.3 °F 30.18 in East 1.7 mph 10 mph 83.6% 0.00 in 72 W/m2
15:04 64.5 °F 59.2 °F 30.18 in NE 1.7 mph 10 mph 83.2% 0.00 in 62 W/m2
15:09 64.5 °F 59.2 °F 30.18 in ENE 0.9 mph 8 mph 83% 0.00 in 70 W/m2
15:14 64.6 °F 59.3 °F 30.17 in East 1.7 mph 8 mph 83% 0.00 in 67 W/m2
15:19 64.6 °F 59.3 °F 30.17 in ENE 0.9 mph 8 mph 82.8% 0.00 in 65 W/m2
15:24 64.6 °F 59.3 °F 30.17 in ENE 2.5 mph 8 mph 83% 0.00 in 69 W/m2
15:29 64.6 °F 59.2 °F 30.17 in NE 3 mph 9 mph 82.4% 0.00 in 69 W/m2
15:34 64.7 °F 59.2 °F 30.17 in ENE 2.7 mph 10 mph 82.5% 0.00 in 77 W/m2
15:39 64.7 °F 59.1 °F 30.17 in ENE 3.1 mph 10 mph 82% 0.00 in 77 W/m2
15:44 64.8 °F 59.2 °F 30.17 in NE 2.9 mph 13 mph 82% 0.00 in 69 W/m2
15:49 64.9 °F 59.2 °F 30.17 in ENE 3.2 mph 13 mph 82% 0.00 in 67 W/m2
15:54 64.9 °F 59.3 °F 30.17 in East 0.8 mph 13 mph 82% 0.00 in 63 W/m2
15:59 65 °F 59.3 °F 30.17 in ENE 1.6 mph 13 mph 81.9% 0.00 in 77 W/m2
16:09 65 °F 59.1 °F 30.16 in ENE 2.1 mph 9 mph 81.3% 0.00 in 63 W/m2
16:14 64.9 °F 59 °F 30.16 in ENE 2.2 mph 9 mph 81% 0.00 in 56 W/m2
16:19 64.9 °F 58.9 °F 30.16 in ENE 1.3 mph 9 mph 81% 0.00 in 56 W/m2
16:24 64.8 °F 58.9 °F 30.16 in East 2.7 mph 9 mph 81% 0.00 in 54 W/m2
16:29 64.8 °F 58.8 °F 30.16 in NE 3.5 mph 11 mph 81% 0.00 in 53 W/m2
16:34 64.8 °F 58.8 °F 30.16 in NE 1.6 mph 11 mph 81% 0.00 in 49 W/m2
16:39 64.7 °F 58.7 °F 30.16 in ENE 3 mph 10 mph 81% 0.00 in 53 W/m2
16:44 64.7 °F 58.7 °F 30.16 in ENE 1.5 mph 10 mph 81% 0.00 in 58 W/m2
16:49 64.7 °F 58.7 °F 30.15 in NE 1.8 mph 10 mph 81% 0.00 in 65 W/m2
16:54 64.7 °F 58.7 °F 30.15 in ENE 1.4 mph 10 mph 81% 0.00 in 58 W/m2
16:59 64.7 °F 58.8 °F 30.15 in ENE 0.7 mph 10 mph 81.2% 0.00 in 47 W/m2
17:04 64.7 °F 58.9 °F 30.15 in NE 0.9 mph 10 mph 81.5% 0.00 in 44 W/m2
17:09 64.6 °F 58.6 °F 30.15 in NE 1.1 mph 6 mph 81% 0.00 in 39 W/m2
17:14 64.5 °F 58.6 °F 30.15 in NE 1.7 mph 7 mph 81% 0.00 in 35 W/m2
17:19 64.5 °F 58.6 °F 30.16 in NE 1.3 mph 7 mph 81.3% 0.00 in 26 W/m2
17:24 64.4 °F 58.6 °F 30.16 in NNE 0.5 mph 7 mph 81.6% 0.00 in 18 W/m2
17:29 64.3 °F 58.6 °F 30.16 in ENE 0.5 mph 7 mph 81.8% 0.00 in 14 W/m2
17:34 64.1 °F 58.5 °F 30.16 in NE 1.3 mph 7 mph 82% 0.00 in 12 W/m2
17:39 64 °F 58.4 °F 30.16 in NE 1.7 mph 7 mph 82% 0.00 in 9 W/m2
17:44 63.9 °F 58.3 °F 30.16 in ENE 0.6 mph 7 mph 82% 0.00 in 7 W/m2
17:49 63.8 °F 58.2 °F 30.16 in ENE 0.1 mph 7 mph 82% 0.00 in 7 W/m2
17:54 63.7 °F 58.1 °F 30.16 in ENE 0.4 mph 7 mph 82% 0.00 in 7 W/m2
17:59 63.6 °F 58.2 °F 30.16 in ENE 0.4 mph 7 mph 82.7% 0.00 in 7 W/m2
18:04 63.6 °F 58.3 °F 30.16 in ENE 0.1 mph 7 mph 83% 0.00 in 5 W/m2
18:09 63.5 °F 58.3 °F 30.16 in Calm   2 mph 83% 0.00 in 0 W/m2
18:39 63.1 °F 58.2 °F 30.15 in ENE 0.4 mph 3 mph 84% 0.00 in 0 W/m2
18:44 63 °F 58.1 °F 30.15 in ENE 0.4 mph 4 mph 84% 0.00 in 0 W/m2
18:49 63 °F 58.1 °F 30.15 in ENE 0.3 mph 4 mph 84% 0.00 in 0 W/m2
18:54 63 °F 58.1 °F 30.16 in ENE 0.6 mph 5 mph 84% 0.00 in 0 W/m2
18:59 62.9 °F 58 °F 30.16 in ENE 0.6 mph 5 mph 84% 0.00 in 0 W/m2
19:04 62.9 °F 58 °F 30.15 in ENE 0.8 mph 5 mph 84% 0.00 in 0 W/m2
19:09 62.8 °F 58 °F 30.15 in Calm   5 mph 84.2% 0.00 in 0 W/m2
19:14 62.7 °F 57.8 °F 30.15 in Calm   5 mph 84% 0.00 in 0 W/m2
19:19 62.7 °F 58.1 °F 30.15 in Calm   5 mph 84.8% 0.00 in 0 W/m2
19:24 62.7 °F 58.1 °F 30.15 in Calm   5 mph 85% 0.00 in 0 W/m2
19:29 62.6 °F 58 °F 30.15 in NE 0.5 mph 6 mph 85% 0.00 in 0 W/m2
19:34 62.5 °F 57.9 °F 30.15 in ENE 0.7 mph 6 mph 85% 0.00 in 0 W/m2
19:39 62.5 °F 57.9 °F 30.15 in NE 1.3 mph 7 mph 85% 0.00 in 0 W/m2
19:44 62.4 °F 57.8 °F 30.14 in ENE 0.9 mph 7 mph 85% 0.00 in 0 W/m2
19:49 62.3 °F 57.7 °F 30.14 in ENE 0.5 mph 7 mph 85% 0.00 in 0 W/m2
19:54 62.3 °F 57.7 °F 30.14 in ENE 0.1 mph 7 mph 85% 0.00 in 0 W/m2
19:58 62.3 °F 57.7 °F 30.14 in ENE 0.1 mph 7 mph 85% 0.00 in 0 W/m2
20:04 62.2 °F 57.6 °F 30.14 in Calm     85% 0.00 in 0 W/m2
20:09 62.1 °F 57.6 °F 30.14 in ENE 0.2 mph 3 mph 85% 0.00 in 0 W/m2
20:14 62.1 °F 57.5 °F 30.14 in Calm   3 mph 85% 0.00 in 0 W/m2
20:19 62.1 °F 57.5 °F 30.14 in ENE 0.9 mph 5 mph 85% 0.00 in 0 W/m2
20:24 62 °F 57.5 °F 30.14 in ENE 0.8 mph 5 mph 85% 0.00 in 0 W/m2
20:29 62 °F 57.7 °F 30.14 in ENE 0.8 mph 5 mph 85.8% 0.00 in 0 W/m2
20:34 62 °F 57.8 °F 30.14 in Calm   5 mph 86% 0.00 in 0 W/m2
20:39 62 °F 57.8 °F 30.14 in Calm   3 mph 86% 0.00 in 0 W/m2
20:44 61.9 °F 57.7 °F 30.15 in Calm   3 mph 86% 0.00 in 0 W/m2
20:49 61.9 °F 57.7 °F 30.15 in Calm   3 mph 86% 0.00 in 0 W/m2
20:54 61.9 °F 57.7 °F 30.15 in ENE 0.1 mph 3 mph 86% 0.00 in 0 W/m2
20:59 61.8 °F 57.7 °F 30.15 in Calm   3 mph 86.3% 0.00 in 0 W/m2
21:04 61.8 °F 57.8 °F 30.15 in ENE 0.1 mph 3 mph 86.8% 0.00 in 0 W/m2
21:09 61.8 °F 57.9 °F 30.15 in ENE 0.2 mph 3 mph 87% 0.00 in 0 W/m2
21:14 61.8 °F 57.9 °F 30.15 in Calm   3 mph 87% 0.00 in 0 W/m2
21:19 61.7 °F 57.8 °F 30.14 in Calm   3 mph 87% 0.00 in 0 W/m2
21:24 61.7 °F 57.8 °F 30.14 in ENE 0.3 mph 3 mph 87% 0.00 in 0 W/m2
21:29 61.7 °F 57.8 °F 30.14 in ENE 0.1 mph 3 mph 87% 0.00 in 0 W/m2
21:34 61.6 °F 57.7 °F 30.14 in Calm   3 mph 87% 0.00 in 0 W/m2
21:39 61.6 °F 57.7 °F 30.14 in ENE 0.4 mph 4 mph 87% 0.00 in 0 W/m2
21:44 61.6 °F 57.7 °F 30.14 in ENE 0.1 mph 4 mph 87% 0.00 in 0 W/m2
21:49 61.6 °F 57.8 °F 30.14 in NNE 0.1 mph 4 mph 87.2% 0.00 in 0 W/m2
21:54 61.6 °F 58 °F 30.14 in Calm   4 mph 88% 0.00 in 0 W/m2
21:59 61.5 °F 58 °F 30.14 in Calm   4 mph 88% 0.00 in 0 W/m2
22:04 61.5 °F 57.9 °F 30.14 in ENE 0.6 mph 5 mph 88% 0.00 in 0 W/m2
22:09 61.5 °F 57.9 °F 30.14 in ENE 0.5 mph 5 mph 88% 0.00 in 0 W/m2
22:14 61.5 °F 57.9 °F 30.13 in ENE 1.1 mph 7 mph 88% 0.00 in 0 W/m2
22:19 61.4 °F 57.9 °F 30.13 in ENE 1.2 mph 7 mph 88% 0.00 in 0 W/m2
22:24 61.4 °F 57.8 °F 30.13 in ENE 0.5 mph 7 mph 88% 0.00 in 0 W/m2
22:29 61.4 °F 58 °F 30.13 in NE 1.2 mph 7 mph 88.7% 0.00 in 0 W/m2
22:34 61.4 °F 58.1 °F 30.12 in ENE 0.9 mph 7 mph 89% 0.00 in 0 W/m2
22:39 61.4 °F 58.1 °F 30.12 in ENE 0.1 mph 6 mph 89% 0.00 in 0 W/m2
22:44 61.3 °F 58.1 °F 30.12 in ENE 0.2 mph 6 mph 89% 0.00 in 0 W/m2
22:49 61.3 °F 58 °F 30.12 in Calm   6 mph 89% 0.00 in 0 W/m2
22:54 61.3 °F 58.2 °F 30.12 in Calm   6 mph 89.4% 0.00 in 0 W/m2
22:59 61.2 °F 58.3 °F 30.13 in Calm   6 mph 90% 0.00 in 0 W/m2
23:04 61.1 °F 58.2 °F 30.12 in NNE 0.1 mph 6 mph 90% 0.00 in 0 W/m2
23:09 61 °F 57.9 °F 30.13 in North 0.6 mph 6 mph 89.5% 0.00 in 0 W/m2
23:14 61 °F 58 °F 30.13 in North 0.1 mph 6 mph 90% 0.00 in 0 W/m2
23:19 60.9 °F 58 °F 30.12 in North 0.2 mph 6 mph 90% 0.00 in 0 W/m2
23:24 60.8 °F 57.9 °F 30.12 in NNW 1.4 mph 6 mph 90% 0.00 in 0 W/m2
23:29 60.7 °F 57.8 °F 30.12 in NW 0.6 mph 10 mph 90% 0.00 in 0 W/m2
23:34 60.6 °F 57.6 °F 30.12 in North 0.9 mph 10 mph 90% 0.00 in 0 W/m2
23:39 60.5 °F 57.5 °F 30.12 in NNE 0.9 mph 10 mph 90% 0.00 in 0 W/m2
23:44 60.4 °F 57.5 °F 30.12 in NNW 0.7 mph 10 mph 90.2% 0.00 in 0 W/m2
23:49 60.3 °F 57.7 °F 30.12 in NNW 1.2 mph 10 mph 91% 0.00 in 0 W/m2
23:54 60.2 °F 57.6 °F 30.12 in NNW 0.2 mph 10 mph 91% 0.00 in 0 W/m2
23:59 60.2 °F 57.5 °F 30.12 in NW 1.2 mph 10 mph 91% 0.00 in 0 W/m2
Hartford County Weather
Compliments of Weather Underground - 4 mb